Time;durP1;ratioP1;P1;durP2;ratioP2;P2;SDS_P1;SDS_P2;PMS_P1;PMS_P2;Temp;Humidity;BMP_temperature;BMP_pressure;BME280_temperature;BME280_humidity;BME280_pressure;Samples;Min_cycle;Max_cycle;Signal;HPM_P1;HPM_P2
2023/05/21 00:02:08;;;;;;;13.23;8.35;;;;;;;;;;6321559;22;20169;-93
2023/05/21 00:05:17;;;;;;;13.80;8.05;;;;;;;;;;6322106;22;20169;-90
2023/05/21 00:08:22;;;;;;;15.43;8.15;;;;;;;;;;6323616;22;20161;-91
2023/05/21 00:11:27;;;;;;;15.13;8.13;;;;;;;;;;6323301;22;20181;-91
2023/05/21 00:14:32;;;;;;;15.73;8.48;;;;;;;;;;6322859;22;20259;-92
2023/05/21 00:17:42;;;;;;;13.63;8.18;;;;;;;;;;6322613;22;20173;-90
2023/05/21 00:20:48;;;;;;;12.07;8.15;;;;;;;;;;6323272;22;20161;-90
2023/05/21 00:23:55;;;;;;;16.05;9.07;;;;;;;;;;6305908;22;20233;-90
2023/05/21 00:30:51;;;;;;;15.45;8.20;;;;;;;;;;6303577;22;20203;-90
2023/05/21 00:33:56;;;;;;;18.02;8.70;;;;;;;;;;6306113;22;20161;-90
2023/05/21 00:37:02;;;;;;;15.60;8.85;;;;;;;;;;6303499;22;20165;-91
2023/05/21 00:40:08;;;;;;;16.30;7.85;;;;;;;;;;6323464;22;20177;-91
2023/05/21 00:43:13;;;;;;;17.55;8.85;;;;;;;;;;6321685;22;20164;-90
2023/05/21 00:46:19;;;;;;;14.68;8.02;;;;;;;;;;6322066;22;20154;-90
2023/05/21 00:49:25;;;;;;;14.05;8.45;;;;;;;;;;6321721;22;20576;-90
2023/05/21 00:52:32;;;;;;;15.73;8.57;;;;;;;;;;6322938;22;20169;-93
2023/05/21 00:55:37;;;;;;;17.75;8.57;;;;;;;;;;6323708;22;20152;-92
2023/05/21 00:58:42;;;;;;;15.77;8.75;;;;;;;;;;6322711;22;20324;-90
2023/05/21 01:01:55;;;;;;;14.20;8.93;;;;;;;;;;6305765;22;20157;-91
2023/05/21 01:05:03;;;;;;;15.40;8.10;;;;;;;;;;6322840;22;20212;-91
2023/05/21 01:08:10;;;;;;;14.10;8.35;;;;;;;;;;6323200;22;20607;-90
2023/05/21 01:11:15;;;;;;;14.27;8.68;;;;;;;;;;6322213;22;20189;-89
2023/05/21 01:14:21;;;;;;;15.15;8.95;;;;;;;;;;6320776;22;20169;-88
2023/05/21 01:18:09;;;;;;;16.08;9.25;;;;;;;;;;6321518;22;20169;-90
2023/05/21 01:21:16;;;;;;;17.52;8.50;;;;;;;;;;6321286;22;20170;-92
2023/05/21 01:24:23;;;;;;;15.82;8.43;;;;;;;;;;6303557;22;20173;-90
2023/05/21 01:27:53;;;;;;;14.60;8.80;;;;;;;;;;6321593;22;20145;-91
2023/05/21 01:31:01;;;;;;;14.60;8.43;;;;;;;;;;6321106;22;20193;-91
2023/05/21 01:34:08;;;;;;;27.23;13.20;;;;;;;;;;6321753;22;20165;-91
2023/05/21 01:37:18;;;;;;;37.67;17.38;;;;;;;;;;6321499;22;20164;-90
2023/05/21 01:40:30;;;;;;;36.35;17.33;;;;;;;;;;6321862;22;20192;-89
2023/05/21 01:43:35;;;;;;;19.70;10.60;;;;;;;;;;6322842;22;20240;-93
2023/05/21 01:46:41;;;;;;;24.15;11.52;;;;;;;;;;6304956;22;20161;-90
2023/05/21 01:49:46;;;;;;;22.35;11.43;;;;;;;;;;6321690;22;20641;-91
2023/05/21 01:52:52;;;;;;;35.38;15.93;;;;;;;;;;6320776;22;20161;-87
2023/05/21 01:55:59;;;;;;;24.80;13.32;;;;;;;;;;6321521;22;20164;-89
2023/05/21 01:59:04;;;;;;;25.13;12.75;;;;;;;;;;6322928;22;20148;-90
2023/05/21 02:02:10;;;;;;;20.33;10.48;;;;;;;;;;6321684;22;20172;-92
2023/05/21 02:05:15;;;;;;;37.53;17.05;;;;;;;;;;6322045;22;20161;-92
2023/05/21 02:08:22;;;;;;;36.58;17.60;;;;;;;;;;6302427;22;20547;-88
2023/05/21 02:11:31;;;;;;;19.98;9.48;;;;;;;;;;6321487;22;20628;-89
2023/05/21 02:14:37;;;;;;;18.75;9.73;;;;;;;;;;6322375;22;20168;-90
2023/05/21 02:17:58;;;;;;;19.25;9.90;;;;;;;;;;6320044;22;20161;-91
2023/05/21 02:21:04;;;;;;;20.15;9.00;;;;;;;;;;6320279;22;20165;-90
2023/05/21 02:24:25;;;;;;;18.67;9.27;;;;;;;;;;6320105;22;20153;-92
2023/05/21 02:27:55;;;;;;;16.80;9.85;;;;;;;;;;6320769;22;20235;-89
2023/05/21 02:31:02;;;;;;;13.82;9.07;;;;;;;;;;6319288;22;20206;-90
2023/05/21 02:34:07;;;;;;;18.80;9.40;;;;;;;;;;6318607;22;20240;-91
2023/05/21 02:37:13;;;;;;;17.75;8.85;;;;;;;;;;6318644;22;20195;-91
2023/05/21 02:40:18;;;;;;;15.60;9.32;;;;;;;;;;6319838;22;20176;-90
2023/05/21 02:43:23;;;;;;;18.55;9.35;;;;;;;;;;6320981;22;20173;-90
2023/05/21 02:46:29;;;;;;;15.65;9.60;;;;;;;;;;6321180;22;20177;-89
2023/05/21 02:49:34;;;;;;;18.05;9.40;;;;;;;;;;6321018;22;20165;-90
2023/05/21 02:52:40;;;;;;;15.25;9.32;;;;;;;;;;6321709;22;20196;-91
2023/05/21 02:55:45;;;;;;;17.98;9.52;;;;;;;;;;6320420;22;20172;-90
2023/05/21 02:58:51;;;;;;;16.33;9.15;;;;;;;;;;6304181;22;20329;-90
2023/05/21 03:01:59;;;;;;;15.52;9.02;;;;;;;;;;6322198;22;20493;-90
2023/05/21 03:05:04;;;;;;;21.33;9.25;;;;;;;;;;6303908;22;20650;-90
2023/05/21 03:08:09;;;;;;;18.60;11.05;;;;;;;;;;6323231;22;20268;-92
2023/05/21 03:11:15;;;;;;;45.53;21.20;;;;;;;;;;6323609;22;20189;-90
2023/05/21 03:14:20;;;;;;;39.55;17.73;;;;;;;;;;6323991;22;20161;-91
2023/05/21 03:17:30;;;;;;;26.75;13.20;;;;;;;;;;6324467;22;20613;-90
2023/05/21 03:20:42;;;;;;;15.98;10.05;;;;;;;;;;6324981;22;20232;-90
2023/05/21 03:23:59;;;;;;;14.40;8.75;;;;;;;;;;6325363;22;20212;-90
2023/05/21 03:27:06;;;;;;;17.50;9.95;;;;;;;;;;6324077;22;20173;-91
2023/05/21 03:30:14;;;;;;;16.95;9.55;;;;;;;;;;6325229;22;20161;-92
2023/05/21 03:33:38;;;;;;;24.55;9.75;;;;;;;;;;6307222;22;20224;-90
2023/05/21 03:37:04;;;;;;;17.38;9.45;;;;;;;;;;6323228;22;20918;-90
2023/05/21 03:40:13;;;;;;;17.38;10.30;;;;;;;;;;6324110;22;20188;-91
2023/05/21 03:43:19;;;;;;;20.45;9.77;;;;;;;;;;6322499;22;20203;-92
2023/05/21 03:46:25;;;;;;;16.20;9.20;;;;;;;;;;6322480;22;20153;-90
2023/05/21 03:49:50;;;;;;;16.27;9.80;;;;;;;;;;6322915;22;20153;-89
2023/05/21 03:52:55;;;;;;;15.55;9.70;;;;;;;;;;6321223;22;20243;-92
2023/05/21 03:56:00;;;;;;;15.40;9.50;;;;;;;;;;6303790;22;20199;-90
2023/05/21 03:59:05;;;;;;;20.58;10.45;;;;;;;;;;6321295;22;20161;-92
2023/05/21 04:02:11;;;;;;;17.73;9.35;;;;;;;;;;6322646;22;20494;-91
2023/05/21 04:05:17;;;;;;;16.13;9.32;;;;;;;;;;6323284;22;20641;-90
2023/05/21 04:08:23;;;;;;;17.23;10.02;;;;;;;;;;6323384;22;20173;-91
2023/05/21 04:11:28;;;;;;;18.88;9.27;;;;;;;;;;6323320;22;20211;-94
2023/05/21 04:14:34;;;;;;;19.17;9.90;;;;;;;;;;6322039;22;20160;-90
2023/05/21 04:17:44;;;;;;;16.35;9.13;;;;;;;;;;6322343;22;20172;-91
2023/05/21 04:20:52;;;;;;;17.50;9.88;;;;;;;;;;6324708;22;20299;-89
2023/05/21 04:24:02;;;;;;;18.67;9.35;;;;;;;;;;6323536;22;20715;-91
2023/05/21 04:27:34;;;;;;;15.43;8.90;;;;;;;;;;6323662;22;20252;-93
2023/05/21 04:30:39;;;;;;;20.08;9.90;;;;;;;;;;6324504;22;20156;-91
2023/05/21 04:33:45;;;;;;;18.02;9.52;;;;;;;;;;6304461;22;20243;-92
2023/05/21 04:36:52;;;;;;;17.45;9.55;;;;;;;;;;6322242;22;20612;-89
2023/05/21 04:39:58;;;;;;;14.18;9.27;;;;;;;;;;6323011;22;20200;-90
2023/05/21 04:43:04;;;;;;;19.70;9.38;;;;;;;;;;6326838;22;20165;-90
2023/05/21 04:46:10;;;;;;;16.65;9.27;;;;;;;;;;6324033;22;20177;-91
2023/05/21 04:49:15;;;;;;;16.38;9.50;;;;;;;;;;6321640;22;20208;-92
2023/05/21 04:52:23;;;;;;;15.70;9.50;;;;;;;;;;6322542;22;20248;-92
2023/05/21 04:55:28;;;;;;;17.75;8.30;;;;;;;;;;6322449;22;20192;-91
2023/05/21 04:58:34;;;;;;;15.65;9.15;;;;;;;;;;6322972;22;20160;-93
2023/05/21 05:01:40;;;;;;;14.30;8.70;;;;;;;;;;6322261;22;20239;-91
2023/05/21 05:04:45;;;;;;;13.43;8.13;;;;;;;;;;6322402;22;20252;-91
2023/05/21 05:07:52;;;;;;;17.80;9.20;;;;;;;;;;6303485;22;20149;-91
2023/05/21 05:10:57;;;;;;;14.45;8.98;;;;;;;;;;6320372;22;20149;-92
2023/05/21 05:14:02;;;;;;;14.85;8.45;;;;;;;;;;6304070;22;20168;-91
2023/05/21 05:17:43;;;;;;;17.70;8.27;;;;;;;;;;6323684;22;20165;-90
2023/05/21 05:20:48;;;;;;;15.85;8.60;;;;;;;;;;6322060;22;20165;-89
2023/05/21 05:23:56;;;;;;;15.70;9.85;;;;;;;;;;6322404;22;20149;-89
2023/05/21 05:27:05;;;;;;;16.13;8.75;;;;;;;;;;6303658;22;20157;-91
2023/05/21 05:30:11;;;;;;;16.38;8.80;;;;;;;;;;6322293;22;20199;-91
2023/05/21 05:33:16;;;;;;;17.02;8.57;;;;;;;;;;6305561;22;20604;-91
2023/05/21 05:36:21;;;;;;;13.82;8.10;;;;;;;;;;6321867;22;20220;-91
2023/05/21 05:39:28;;;;;;;16.77;7.90;;;;;;;;;;6322387;22;20170;-89
2023/05/21 05:42:33;;;;;;;17.55;7.90;;;;;;;;;;6304745;22;20164;-89
2023/05/21 05:45:42;;;;;;;13.77;8.15;;;;;;;;;;6322187;22;20608;-91
2023/05/21 05:48:51;;;;;;;13.63;8.30;;;;;;;;;;6304277;22;20160;-91
2023/05/21 05:51:57;;;;;;;13.77;8.00;;;;;;;;;;6321512;22;20188;-91
2023/05/21 05:55:07;;;;;;;13.88;7.80;;;;;;;;;;6321297;22;20240;-90
2023/05/21 05:58:12;;;;;;;17.02;8.10;;;;;;;;;;6320929;22;20169;-89
2023/05/21 06:01:56;;;;;;;15.98;8.27;;;;;;;;;;6322256;22;20161;-91
2023/05/21 06:05:01;;;;;;;11.13;8.13;;;;;;;;;;6320509;22;20169;-89
2023/05/21 06:08:06;;;;;;;17.20;8.40;;;;;;;;;;6322225;22;20164;-91
2023/05/21 06:11:15;;;;;;;13.43;7.53;;;;;;;;;;6303805;22;20145;-89
2023/05/21 06:14:20;;;;;;;14.45;7.85;;;;;;;;;;6302773;22;20674;-92
2023/05/21 06:17:31;;;;;;;15.63;7.65;;;;;;;;;;6321369;22;20161;-90
2023/05/21 06:20:36;;;;;;;14.65;8.13;;;;;;;;;;6302227;22;20165;-89
2023/05/21 06:23:41;;;;;;;16.98;7.78;;;;;;;;;;6322375;22;20153;-91
2023/05/21 06:26:49;;;;;;;12.68;7.43;;;;;;;;;;6302842;22;20217;-90
2023/05/21 06:29:54;;;;;;;12.75;7.72;;;;;;;;;;6318187;22;20169;-92
2023/05/21 06:32:59;;;;;;;17.52;7.88;;;;;;;;;;6320918;22;20180;-90
2023/05/21 06:36:07;;;;;;;13.20;7.65;;;;;;;;;;6320650;22;20169;-88
2023/05/21 06:39:13;;;;;;;13.23;7.22;;;;;;;;;;6322115;22;20149;-92
2023/05/21 06:42:20;;;;;;;11.68;7.07;;;;;;;;;;6322772;22;20161;-90
2023/05/21 06:45:33;;;;;;;11.77;7.40;;;;;;;;;;6322948;22;20165;-91
2023/05/21 06:48:45;;;;;;;14.38;7.72;;;;;;;;;;6322141;22;20177;-89
2023/05/21 06:51:51;;;;;;;11.15;7.40;;;;;;;;;;6322778;22;20180;-88
2023/05/21 06:54:56;;;;;;;14.77;7.45;;;;;;;;;;6322341;22;20608;-92
2023/05/21 06:58:05;;;;;;;14.55;8.13;;;;;;;;;;6324130;22;20627;-93
2023/05/21 07:01:11;;;;;;;15.40;7.97;;;;;;;;;;6324196;22;20612;-90
2023/05/21 07:04:16;;;;;;;16.33;7.57;;;;;;;;;;6323042;22;20156;-91
2023/05/21 07:07:22;;;;;;;12.77;7.13;;;;;;;;;;6322066;22;20148;-90
2023/05/21 07:10:28;;;;;;;13.77;7.43;;;;;;;;;;6306311;22;20149;-91
2023/05/21 07:13:35;;;;;;;11.50;7.22;;;;;;;;;;6324209;22;20698;-89
2023/05/21 07:16:41;;;;;;;12.95;6.90;;;;;;;;;;6323302;22;20161;-91
2023/05/21 07:19:50;;;;;;;10.48;6.50;;;;;;;;;;6324278;22;20161;-88
2023/05/21 07:22:56;;;;;;;13.38;6.97;;;;;;;;;;6323922;22;20239;-92
2023/05/21 07:26:02;;;;;;;12.90;6.53;;;;;;;;;;6307439;22;20149;-89
2023/05/21 07:29:09;;;;;;;15.80;6.95;;;;;;;;;;6326032;22;20162;-90
2023/05/21 07:32:16;;;;;;;16.25;6.97;;;;;;;;;;6324640;22;20187;-92
2023/05/21 07:35:22;;;;;;;14.10;7.05;;;;;;;;;;6324173;22;20168;-93
2023/05/21 07:38:28;;;;;;;10.60;6.80;;;;;;;;;;6325001;22;20184;-92
2023/05/21 07:41:33;;;;;;;14.93;7.00;;;;;;;;;;6325017;22;20189;-91
2023/05/21 07:44:44;;;;;;;11.10;6.53;;;;;;;;;;6323778;22;20484;-93
2023/05/21 07:47:50;;;;;;;12.93;6.88;;;;;;;;;;6323069;22;20189;-91
2023/05/21 07:51:02;;;;;;;11.13;6.75;;;;;;;;;;6323758;22;20169;-91
2023/05/21 07:54:09;;;;;;;9.82;6.47;;;;;;;;;;6323423;22;20149;-91
2023/05/21 07:57:16;;;;;;;10.73;5.97;;;;;;;;;;6323466;22;20205;-91
2023/05/21 08:00:45;;;;;;;9.75;5.85;;;;;;;;;;6323041;22;20236;-92
2023/05/21 08:03:51;;;;;;;11.05;6.30;;;;;;;;;;6325891;22;20184;-92
2023/05/21 08:06:56;;;;;;;10.35;6.47;;;;;;;;;;6306550;22;20208;-91
2023/05/21 08:10:02;;;;;;;8.20;5.53;;;;;;;;;;6325104;22;20168;-91
2023/05/21 08:13:08;;;;;;;8.55;5.65;;;;;;;;;;6325171;22;20525;-93
2023/05/21 08:16:37;;;;;;;10.68;5.78;;;;;;;;;;6325527;22;20165;-91
2023/05/21 08:19:44;;;;;;;8.68;5.38;;;;;;;;;;6325027;22;20164;-90
2023/05/21 08:22:49;;;;;;;10.52;6.30;;;;;;;;;;6322930;22;20148;-91
2023/05/21 08:25:55;;;;;;;8.88;5.55;;;;;;;;;;6321472;22;20189;-92
2023/05/21 08:29:01;;;;;;;10.60;5.43;;;;;;;;;;6320621;22;20254;-88
2023/05/21 08:32:08;;;;;;;14.65;5.03;;;;;;;;;;6320321;22;20520;-90
2023/05/21 08:35:15;;;;;;;10.38;4.88;;;;;;;;;;6322806;22;20161;-90
2023/05/21 08:38:32;;;;;;;9.15;5.00;;;;;;;;;;6321488;22;20145;-91
2023/05/21 08:41:43;;;;;;;9.52;5.10;;;;;;;;;;6304243;22;20184;-90
2023/05/21 08:44:50;;;;;;;10.10;5.03;;;;;;;;;;6321716;22;20165;-91
2023/05/21 08:47:56;;;;;;;8.15;4.80;;;;;;;;;;6320941;22;20518;-91
2023/05/21 08:51:05;;;;;;;9.98;5.18;;;;;;;;;;6319446;22;20608;-90
2023/05/21 08:54:22;;;;;;;9.18;5.55;;;;;;;;;;6322261;22;20156;-90
2023/05/21 08:57:27;;;;;;;8.70;5.20;;;;;;;;;;6321651;22;20224;-89
2023/05/21 09:00:34;;;;;;;7.68;5.00;;;;;;;;;;6320542;22;20176;-92
2023/05/21 09:03:40;;;;;;;9.27;4.78;;;;;;;;;;6321581;22;20187;-91
2023/05/21 09:06:49;;;;;;;9.52;4.82;;;;;;;;;;6301159;22;20234;-92
2023/05/21 09:10:04;;;;;;;10.32;5.45;;;;;;;;;;6321041;22;20164;-91
2023/05/21 09:13:11;;;;;;;10.48;5.32;;;;;;;;;;6306542;22;20192;-90
2023/05/21 09:16:15;;;;;;;11.75;5.22;;;;;;;;;;6302808;22;20167;-91
2023/05/21 09:19:21;;;;;;;10.82;6.90;;;;;;;;;;6304813;22;20230;-90
2023/05/21 09:22:28;;;;;;;14.70;6.45;;;;;;;;;;6319326;22;20168;-89
2023/05/21 09:25:34;;;;;;;11.63;5.72;;;;;;;;;;6320335;22;20232;-91
2023/05/21 09:32:19;;;;;;;13.13;7.25;;;;;;;;;;6324156;22;20196;-90
2023/05/21 09:35:25;;;;;;;9.15;5.50;;;;;;;;;;6321295;22;20169;-91
2023/05/21 09:38:34;;;;;;;9.85;4.90;;;;;;;;;;6321831;22;20160;-90
2023/05/21 09:41:43;;;;;;;7.90;5.55;;;;;;;;;;6305058;22;20286;-89
2023/05/21 09:44:48;;;;;;;11.65;6.60;;;;;;;;;;6304626;22;20168;-90
2023/05/21 09:47:54;;;;;;;9.80;5.30;;;;;;;;;;6322680;22;20659;-89
2023/05/21 09:51:07;;;;;;;10.32;6.35;;;;;;;;;;6301807;22;20215;-88
2023/05/21 09:54:14;;;;;;;9.68;5.30;;;;;;;;;;6321207;22;20254;-90
2023/05/21 09:57:24;;;;;;;14.85;6.60;;;;;;;;;;6321297;22;20229;-88
2023/05/21 10:00:38;;;;;;;12.20;5.20;;;;;;;;;;6323795;22;20488;-89
2023/05/21 10:03:45;;;;;;;12.55;4.82;;;;;;;;;;6308105;22;20179;-89
2023/05/21 10:06:51;;;;;;;12.75;5.55;;;;;;;;;;6320497;22;20144;-91
2023/05/21 10:10:01;;;;;;;8.07;4.78;;;;;;;;;;6320687;22;20622;-91
2023/05/21 10:13:07;;;;;;;7.40;5.05;;;;;;;;;;6321673;22;20199;-89
2023/05/21 10:16:13;;;;;;;10.60;5.22;;;;;;;;;;6320059;22;20502;-93
2023/05/21 10:19:18;;;;;;;12.95;5.18;;;;;;;;;;6317954;22;20160;-91
2023/05/21 10:22:23;;;;;;;8.38;5.15;;;;;;;;;;6319390;22;20230;-90
2023/05/21 10:25:29;;;;;;;7.22;4.65;;;;;;;;;;6318144;22;20179;-90
2023/05/21 10:28:38;;;;;;;7.78;4.78;;;;;;;;;;6319789;22;20236;-91
2023/05/21 10:31:48;;;;;;;9.50;4.85;;;;;;;;;;6301820;22;20160;-91
2023/05/21 10:34:54;;;;;;;7.75;4.60;;;;;;;;;;6300207;22;20739;-91
2023/05/21 10:37:59;;;;;;;6.53;5.03;;;;;;;;;;6317196;22;20167;-88
2023/05/21 10:41:06;;;;;;;9.40;4.75;;;;;;;;;;6318379;22;20279;-90
2023/05/21 10:44:15;;;;;;;6.40;4.28;;;;;;;;;;6301495;22;20266;-89
2023/05/21 10:47:39;;;;;;;7.50;4.72;;;;;;;;;;6321587;22;20160;-89
2023/05/21 10:51:00;;;;;;;8.35;5.07;;;;;;;;;;6318105;22;20169;-87
2023/05/21 11:05:54;;;;;;;11.60;4.43;;;;;;;;;;6307085;22;20212;-91
2023/05/21 11:09:02;;;;;;;7.35;4.45;;;;;;;;;;6332246;22;20159;-90
2023/05/21 11:12:09;;;;;;;8.77;5.10;;;;;;;;;;6334300;22;20168;-92
2023/05/21 11:15:16;;;;;;;6.00;4.43;;;;;;;;;;6333362;22;20611;-91
2023/05/21 11:18:21;;;;;;;8.45;5.20;;;;;;;;;;6334179;22;20203;-93
2023/05/21 11:21:29;;;;;;;10.30;4.45;;;;;;;;;;6333006;22;20163;-89
2023/05/21 11:24:44;;;;;;;8.80;4.50;;;;;;;;;;6333024;22;20168;-91
2023/05/21 11:27:52;;;;;;;8.52;5.00;;;;;;;;;;6333197;22;20212;-91
2023/05/21 11:31:12;;;;;;;7.00;4.68;;;;;;;;;;6334948;22;20588;-90
2023/05/21 11:34:27;;;;;;;7.25;4.70;;;;;;;;;;6337533;22;20183;-90
2023/05/21 11:37:34;;;;;;;9.32;4.90;;;;;;;;;;6336941;22;20186;-89
2023/05/21 11:40:53;;;;;;;10.18;4.80;;;;;;;;;;6337835;22;20164;-89
2023/05/21 11:44:01;;;;;;;7.68;4.18;;;;;;;;;;6337770;22;20172;-91
2023/05/21 11:47:07;;;;;;;7.65;4.57;;;;;;;;;;6337451;22;20167;-91
2023/05/21 11:50:13;;;;;;;11.48;4.50;;;;;;;;;;6340086;22;20160;-90
2023/05/21 11:53:19;;;;;;;8.18;4.60;;;;;;;;;;6337153;22;20240;-89
2023/05/21 11:56:24;;;;;;;8.75;4.75;;;;;;;;;;6338085;22;20171;-90
2023/05/21 11:59:32;;;;;;;7.55;4.57;;;;;;;;;;6337326;22;20167;-91
2023/05/21 12:02:37;;;;;;;9.45;4.25;;;;;;;;;;6338268;22;20168;-90
2023/05/21 12:05:45;;;;;;;5.93;4.40;;;;;;;;;;6337574;22;20187;-91
2023/05/21 12:08:56;;;;;;;6.18;4.30;;;;;;;;;;6338052;22;20241;-90
2023/05/21 12:12:04;;;;;;;8.70;4.60;;;;;;;;;;6338414;22;20334;-91
2023/05/21 12:50:23;;;;;;;7.20;4.63;;;;;;;;;;6289085;22;20209;-87
2023/05/21 12:53:36;;;;;;;7.65;4.55;;;;;;;;;;6327027;22;20180;-91
2023/05/21 12:56:45;;;;;;;7.85;4.60;;;;;;;;;;6326207;22;20240;-89
2023/05/21 12:59:52;;;;;;;18.52;4.57;;;;;;;;;;6324444;22;20160;-88
2023/05/21 13:02:58;;;;;;;6.47;4.13;;;;;;;;;;6324505;22;20240;-91
2023/05/21 13:06:06;;;;;;;7.70;4.50;;;;;;;;;;6323040;22;20165;-90
2023/05/21 13:09:12;;;;;;;7.50;4.40;;;;;;;;;;6324034;22;20166;-90
2023/05/21 13:12:17;;;;;;;10.23;5.10;;;;;;;;;;6322644;22;20175;-89
2023/05/21 13:15:23;;;;;;;7.45;4.50;;;;;;;;;;6323655;22;20172;-90
2023/05/21 13:18:34;;;;;;;7.75;4.32;;;;;;;;;;6323454;22;20169;-90
2023/05/21 13:21:41;;;;;;;6.18;4.30;;;;;;;;;;6323910;22;20167;-91
2023/05/21 13:24:46;;;;;;;7.28;4.57;;;;;;;;;;6323437;22;20160;-89
2023/05/21 13:27:53;;;;;;;6.60;3.88;;;;;;;;;;6326957;22;20164;-90
2023/05/21 13:30:58;;;;;;;5.65;4.22;;;;;;;;;;6326970;22;20180;-90
2023/05/21 13:34:03;;;;;;;11.52;4.40;;;;;;;;;;6327353;22;20239;-90
2023/05/21 13:37:10;;;;;;;11.02;4.75;;;;;;;;;;6325521;22;20489;-89
2023/05/21 13:40:16;;;;;;;6.80;4.20;;;;;;;;;;6323779;22;20211;-91
2023/05/21 13:43:22;;;;;;;6.90;4.57;;;;;;;;;;6306735;22;20163;-87
2023/05/21 13:46:28;;;;;;;5.25;4.10;;;;;;;;;;6326126;22;20148;-88
2023/05/21 13:49:34;;;;;;;9.32;4.40;;;;;;;;;;6324610;22;20215;-90
2023/05/21 13:52:40;;;;;;;8.30;4.45;;;;;;;;;;6325590;22;20219;-90
2023/05/21 13:55:46;;;;;;;7.93;4.40;;;;;;;;;;6323882;22;20232;-90
2023/05/21 13:58:53;;;;;;;7.25;4.45;;;;;;;;;;6327666;22;20176;-90
2023/05/21 14:01:58;;;;;;;9.32;4.55;;;;;;;;;;6327871;22;20164;-90
2023/05/21 14:05:03;;;;;;;8.40;4.50;;;;;;;;;;6327248;22;20214;-90
2023/05/21 14:08:12;;;;;;;6.72;4.63;;;;;;;;;;6327186;22;20287;-87
2023/05/21 14:11:17;;;;;;;7.03;4.63;;;;;;;;;;6325564;22;20187;-90
2023/05/21 14:14:24;;;;;;;7.88;4.43;;;;;;;;;;6306600;22;20171;-89
2023/05/21 14:17:29;;;;;;;6.47;4.60;;;;;;;;;;6306243;22;20180;-89
2023/05/21 14:20:35;;;;;;;7.70;4.47;;;;;;;;;;6325616;22;20165;-90
2023/05/21 14:23:42;;;;;;;7.78;4.40;;;;;;;;;;6320749;22;20164;-90
2023/05/21 14:27:10;;;;;;;7.80;4.50;;;;;;;;;;6323410;22;20225;-86
2023/05/21 14:30:15;;;;;;;8.43;4.40;;;;;;;;;;6322315;22;20164;-89
2023/05/21 14:33:20;;;;;;;6.97;4.68;;;;;;;;;;6304039;22;20198;-91
2023/05/21 14:36:31;;;;;;;13.75;4.75;;;;;;;;;;6323475;22;20175;-90
2023/05/21 14:39:38;;;;;;;7.28;4.68;;;;;;;;;;6321309;22;20215;-88
2023/05/21 14:42:44;;;;;;;9.75;4.95;;;;;;;;;;6322564;22;20233;-89
2023/05/21 14:45:49;;;;;;;7.47;4.38;;;;;;;;;;6306223;22;20187;-89
2023/05/21 14:48:57;;;;;;;9.43;4.85;;;;;;;;;;6323170;22;20153;-89
2023/05/21 14:52:02;;;;;;;7.90;5.32;;;;;;;;;;6323198;22;20191;-90
2023/05/21 14:55:11;;;;;;;9.18;4.82;;;;;;;;;;6305443;22;20192;-89
2023/05/21 14:58:16;;;;;;;12.95;5.03;;;;;;;;;;6319745;22;20180;-91
2023/05/21 15:01:21;;;;;;;7.63;4.40;;;;;;;;;;6321628;22;20176;-90
2023/05/21 15:04:27;;;;;;;9.63;4.57;;;;;;;;;;6325055;22;20306;-90
2023/05/21 15:07:32;;;;;;;9.98;5.13;;;;;;;;;;6302303;22;20168;-91
2023/05/21 15:10:39;;;;;;;9.60;4.93;;;;;;;;;;6304911;22;20148;-89
2023/05/21 15:13:45;;;;;;;10.68;5.75;;;;;;;;;;6307529;22;20256;-88
2023/05/21 15:16:51;;;;;;;9.02;5.00;;;;;;;;;;6326054;22;20168;-90
2023/05/21 15:19:57;;;;;;;8.13;5.57;;;;;;;;;;6326992;22;20168;-89
2023/05/21 15:27:41;;;;;;;8.55;4.97;;;;;;;;;;6325471;22;20165;-90
2023/05/21 15:30:48;;;;;;;11.60;5.28;;;;;;;;;;6324878;22;20188;-90
2023/05/21 15:33:57;;;;;;;9.52;5.10;;;;;;;;;;6323731;22;20197;-91
2023/05/21 15:37:03;;;;;;;8.45;4.90;;;;;;;;;;6327488;22;20153;-88
2023/05/21 15:40:09;;;;;;;11.18;4.85;;;;;;;;;;6321905;22;20208;-89
2023/05/21 15:43:14;;;;;;;8.20;4.47;;;;;;;;;;6323597;22;20168;-90
2023/05/21 15:46:21;;;;;;;7.15;5.03;;;;;;;;;;6322436;22;20247;-90
2023/05/21 15:49:26;;;;;;;7.75;4.82;;;;;;;;;;6323006;22;20278;-93
2023/05/21 15:52:31;;;;;;;8.07;4.72;;;;;;;;;;6324700;22;20164;-90
2023/05/21 15:55:36;;;;;;;8.73;5.05;;;;;;;;;;6322270;22;20261;-90
2023/05/21 15:58:41;;;;;;;8.90;4.95;;;;;;;;;;6320866;22;20169;-89
2023/05/21 16:01:52;;;;;;;14.10;5.18;;;;;;;;;;6321975;22;20165;-90
2023/05/21 16:04:57;;;;;;;7.32;4.60;;;;;;;;;;6323730;22;20221;-90
2023/05/21 16:08:02;;;;;;;8.02;4.70;;;;;;;;;;6303068;22;20170;-89
2023/05/21 16:11:07;;;;;;;11.40;5.18;;;;;;;;;;6323938;22;20247;-89
2023/05/21 16:14:12;;;;;;;7.78;5.20;;;;;;;;;;6322870;22;20196;-89
2023/05/21 16:17:19;;;;;;;12.57;5.38;;;;;;;;;;6322343;22;20165;-89
2023/05/21 16:20:24;;;;;;;9.70;5.30;;;;;;;;;;6320844;22;20242;-90
2023/05/21 16:23:32;;;;;;;10.13;4.82;;;;;;;;;;6321817;22;20284;-90
2023/05/21 16:26:36;;;;;;;9.65;5.15;;;;;;;;;;6321750;22;20169;-88
2023/05/21 16:29:42;;;;;;;9.15;5.00;;;;;;;;;;6321098;22;20174;-90
2023/05/21 16:32:48;;;;;;;8.27;5.30;;;;;;;;;;6323049;22;20169;-90
2023/05/21 16:35:54;;;;;;;10.70;5.20;;;;;;;;;;6320353;22;20196;-91
2023/05/21 16:38:59;;;;;;;8.82;5.00;;;;;;;;;;6318614;22;20161;-90
2023/05/21 16:42:04;;;;;;;10.82;5.97;;;;;;;;;;6322706;22;20153;-90
2023/05/21 16:45:18;;;;;;;7.70;5.15;;;;;;;;;;6302378;22;20191;-91
2023/05/21 16:48:24;;;;;;;10.07;5.38;;;;;;;;;;6320385;22;20173;-88
2023/05/21 16:51:29;;;;;;;11.57;5.38;;;;;;;;;;6301580;22;20161;-91
2023/05/21 16:54:35;;;;;;;7.63;4.90;;;;;;;;;;6317173;22;20514;-89
2023/05/21 16:57:40;;;;;;;9.75;5.20;;;;;;;;;;6320562;22;20153;-88
2023/05/21 17:00:49;;;;;;;12.05;5.55;;;;;;;;;;6318322;22;20169;-90
2023/05/21 17:03:56;;;;;;;9.55;4.60;;;;;;;;;;6301406;22;20145;-89
2023/05/21 17:07:01;;;;;;;10.65;4.72;;;;;;;;;;6303555;22;20235;-89
2023/05/21 17:10:07;;;;;;;7.82;4.85;;;;;;;;;;6319208;22;20168;-88
2023/05/21 17:13:12;;;;;;;8.52;5.07;;;;;;;;;;6323825;22;20157;-89
2023/05/21 17:16:17;;;;;;;11.02;5.70;;;;;;;;;;6318371;22;20537;-88
2023/05/21 17:19:23;;;;;;;9.43;4.40;;;;;;;;;;6320152;22;20161;-90
2023/05/21 17:22:28;;;;;;;9.65;4.80;;;;;;;;;;6302253;22;20211;-89
2023/05/21 17:25:33;;;;;;;7.90;4.53;;;;;;;;;;6302805;22;20161;-91
2023/05/21 17:28:38;;;;;;;10.85;5.10;;;;;;;;;;6321808;22;20166;-88
2023/05/21 17:31:44;;;;;;;9.73;5.10;;;;;;;;;;6319845;22;20165;-87
2023/05/21 17:34:52;;;;;;;12.35;4.80;;;;;;;;;;6318735;22;20192;-90
2023/05/21 17:37:57;;;;;;;11.35;5.15;;;;;;;;;;6320859;22;20164;-90
2023/05/21 17:41:02;;;;;;;8.65;5.05;;;;;;;;;;6320565;22;20173;-90
2023/05/21 17:44:08;;;;;;;11.93;5.03;;;;;;;;;;6303058;22;20494;-89
2023/05/21 17:47:13;;;;;;;10.60;5.15;;;;;;;;;;6319136;22;20161;-87
2023/05/21 17:50:21;;;;;;;11.25;4.95;;;;;;;;;;6300639;22;20675;-90
2023/05/21 17:53:26;;;;;;;8.73;4.85;;;;;;;;;;6300834;22;20161;-90
2023/05/21 17:56:37;;;;;;;12.88;5.22;;;;;;;;;;6319614;22;20169;-90
2023/05/21 17:59:44;;;;;;;11.93;5.53;;;;;;;;;;6320022;22;20169;-88
2023/05/21 18:02:49;;;;;;;9.50;4.85;;;;;;;;;;6301953;22;20164;-89
2023/05/21 18:05:55;;;;;;;8.85;4.70;;;;;;;;;;6304994;22;20164;-90
2023/05/21 18:09:00;;;;;;;7.53;4.90;;;;;;;;;;6321027;22;20211;-87
2023/05/21 18:12:07;;;;;;;9.23;5.13;;;;;;;;;;6302113;22;20703;-88
2023/05/21 18:15:14;;;;;;;11.63;5.25;;;;;;;;;;6325261;22;20197;-88
2023/05/21 18:21:59;;;;;;;11.57;5.63;;;;;;;;;;6320064;22;20200;-89
2023/05/21 18:25:05;;;;;;;11.43;5.53;;;;;;;;;;6321605;22;20225;-89
2023/05/21 18:28:11;;;;;;;11.98;5.75;;;;;;;;;;6322432;22;20297;-90
2023/05/21 18:31:17;;;;;;;13.20;6.00;;;;;;;;;;6321614;22;20141;-90
2023/05/21 18:34:23;;;;;;;12.95;5.65;;;;;;;;;;6322634;22;20161;-92
2023/05/21 18:37:30;;;;;;;12.07;5.68;;;;;;;;;;6320215;22;20173;-90
2023/05/21 18:40:35;;;;;;;12.27;5.75;;;;;;;;;;6322038;22;20168;-89
2023/05/21 18:43:41;;;;;;;14.52;6.85;;;;;;;;;;6320066;22;20175;-91
2023/05/21 18:46:46;;;;;;;10.70;5.82;;;;;;;;;;6320512;22;20164;-90
2023/05/21 18:49:51;;;;;;;12.88;6.72;;;;;;;;;;6303243;22;20211;-90
2023/05/21 18:52:58;;;;;;;13.10;6.38;;;;;;;;;;6318191;22;20169;-90
2023/05/21 18:56:05;;;;;;;10.93;6.68;;;;;;;;;;6321916;22;20223;-90
2023/05/21 18:59:11;;;;;;;8.73;5.50;;;;;;;;;;6320890;22;20172;-88
2023/05/21 19:02:16;;;;;;;12.95;6.05;;;;;;;;;;6321057;22;20148;-90
2023/05/21 19:05:22;;;;;;;15.07;6.68;;;;;;;;;;6322319;22;20224;-87
2023/05/21 19:08:28;;;;;;;11.38;6.28;;;;;;;;;;6305255;22;20161;-87
2023/05/21 19:11:34;;;;;;;12.75;6.13;;;;;;;;;;6322071;22;20152;-88
2023/05/21 19:14:43;;;;;;;14.60;5.80;;;;;;;;;;6304364;22;20165;-89
2023/05/21 19:17:52;;;;;;;14.10;6.32;;;;;;;;;;6323353;22;20189;-90
2023/05/21 19:20:58;;;;;;;14.95;6.57;;;;;;;;;;6305217;22;20165;-88
2023/05/21 19:24:26;;;;;;;16.42;6.63;;;;;;;;;;6303848;22;20224;-91
2023/05/21 19:31:27;;;;;;;15.95;6.35;;;;;;;;;;6303513;22;20176;-90
2023/05/21 19:34:32;;;;;;;12.43;6.25;;;;;;;;;;6319123;22;20246;-89
2023/05/21 19:37:37;;;;;;;12.90;6.25;;;;;;;;;;6319163;22;20145;-91
2023/05/21 19:40:42;;;;;;;12.27;6.95;;;;;;;;;;6322304;22;20235;-88